Indian Creek, Illinois
Current Conditions -  °F | °C
As of 10:52 AM on Thursday 23 Oct 2014 (Local Time) from KPWK Reporting Station
Clear Clear  
Wind Chill: 54°   Ceiling: Unl
Heat Index: 54°   Visibility: 10mi
Dew Point: 42°   Wind: 7mph
Humidity: 64%   Direction: 210°SSW
Pressure: 30.21"   Gusts: NA
Location:  42.223°N, 87.9651°W
Report Text: KPWK 231552Z 21006KT 10SM CLR 12/06 A3021 RMK AO2 SLP234 T01220056
Loading
Personal Weather Stations






























Interactive Weather Map
Tropical Storm Tracking
New forecast layout! Learn more

10-Day Weather Forecast

Advertisements
Track Severe Weather on mobile